createdAt,value
2019-05-29T00:01:46.047Z,4.28
2019-05-29T00:04:16.407Z,4.55
2019-05-29T00:06:46.397Z,4.37
2019-05-29T00:09:16.234Z,4.40
2019-05-29T00:11:45.894Z,4.35
2019-05-29T00:14:25.740Z,4.12
2019-05-29T00:16:47.483Z,3.98
2019-05-29T00:19:18.666Z,3.40
2019-05-29T00:21:48.639Z,3.90
2019-05-29T00:24:18.585Z,3.90
2019-05-29T00:26:48.877Z,3.60
2019-05-29T00:29:18.846Z,4.12
2019-05-29T00:31:48.722Z,4.12
2019-05-29T00:34:18.562Z,3.70
2019-05-29T00:36:48.510Z,4.37
2019-05-29T00:39:18.385Z,4.20
2019-05-29T00:41:48.976Z,4.47
2019-05-29T00:44:33.646Z,4.20
2019-05-29T00:46:50.453Z,4.22
2019-05-29T00:49:20.154Z,3.90
2019-05-29T00:51:50.171Z,4.17
2019-05-29T00:54:20.326Z,4.65
2019-05-29T00:56:50.209Z,4.27
2019-05-29T00:59:20.179Z,4.17
2019-05-29T01:01:50.244Z,3.95
2019-05-29T01:04:20.286Z,3.22
2019-05-29T01:06:50.548Z,4.12
2019-05-29T01:09:24.050Z,4.27
2019-05-29T01:11:54.789Z,4.35
2019-05-29T01:14:25.321Z,4.28
2019-05-29T01:16:55.261Z,4.47
2019-05-29T01:19:25.326Z,3.30
2019-05-29T01:21:56.579Z,4.45
2019-05-29T01:24:26.844Z,4.12
2019-05-29T01:26:56.527Z,4.83
2019-05-29T01:29:26.217Z,4.50
2019-05-29T01:31:55.874Z,4.12
2019-05-29T01:37:54.890Z,4.08
2019-05-29T01:40:27.996Z,4.05
2019-05-29T01:42:56.385Z,4.00
2019-05-29T01:45:26.346Z,4.80
2019-05-29T01:47:56.237Z,4.25
2019-05-29T01:50:26.248Z,4.30
2019-05-29T01:52:56.157Z,4.35
2019-05-29T01:55:26.116Z,4.00
2019-05-29T01:57:56.018Z,4.22
2019-05-29T02:00:26.096Z,4.03
2019-05-29T02:02:56.259Z,4.50
2019-05-29T02:05:26.201Z,3.90
2019-05-29T02:07:56.325Z,3.67
2019-05-29T02:10:26.840Z,3.87
2019-05-29T02:12:56.736Z,4.78
2019-05-29T02:15:33.568Z,4.42
2019-05-29T02:17:58.568Z,5.08
2019-05-29T02:20:28.610Z,3.67
2019-05-29T02:22:58.517Z,3.98
2019-05-29T02:25:28.464Z,4.25
2019-05-29T02:27:58.789Z,4.28
2019-05-29T02:30:30.766Z,4.10
2019-05-29T02:33:00.390Z,3.70
2019-05-29T02:35:30.579Z,4.78
2019-05-29T02:38:00.494Z,4.37
2019-05-29T02:40:31.004Z,3.62
2019-05-29T02:43:00.901Z,3.33
2019-05-29T02:45:50.221Z,5.03
2019-05-29T02:48:02.406Z,4.17
2019-05-29T02:50:32.406Z,4.83
2019-05-29T02:53:02.393Z,4.30
2019-05-29T02:55:32.672Z,4.33
2019-05-29T02:58:03.447Z,3.75
2019-05-29T03:00:52.967Z,4.03
2019-05-29T03:03:26.329Z,4.42
2019-05-29T03:05:56.823Z,4.35
2019-05-29T03:08:29.100Z,4.67
2019-05-29T03:10:58.961Z,4.45
2019-05-29T03:13:30.504Z,4.80
2019-05-29T03:16:10.775Z,3.95
2019-05-29T03:18:35.127Z,4.57
2019-05-29T03:21:05.020Z,4.42
2019-05-29T03:23:36.318Z,4.55
2019-05-29T03:26:06.807Z,4.90
2019-05-29T03:28:38.179Z,4.97
2019-05-29T03:31:08.501Z,5.42
2019-05-29T03:33:47.780Z,4.12
2019-05-29T03:36:10.390Z,3.98
2019-05-29T03:38:40.781Z,4.90
2019-05-29T03:41:11.501Z,4.00
2019-05-29T03:43:41.623Z,4.87
2019-05-29T03:46:29.294Z,5.12
2019-05-29T03:48:43.837Z,3.87
2019-05-29T03:51:14.438Z,4.85
2019-05-29T03:53:44.353Z,4.05
2019-05-29T03:56:14.821Z,4.10
2019-05-29T03:58:44.989Z,4.37
2019-05-29T04:01:15.113Z,4.40
2019-05-29T04:03:45.438Z,5.45
2019-05-29T04:06:16.007Z,4.25
2019-05-29T04:08:46.233Z,4.58
2019-05-29T04:11:16.459Z,4.10
2019-05-29T04:13:46.677Z,4.45
2019-05-29T04:16:16.893Z,4.47
2019-05-29T04:18:48.899Z,3.87
2019-05-29T04:21:20.807Z,4.65
2019-05-29T04:23:52.005Z,4.40
2019-05-29T04:26:23.629Z,5.30
2019-05-29T04:28:54.569Z,4.65
2019-05-29T04:31:24.530Z,4.78
2019-05-29T04:33:54.823Z,4.97
2019-05-29T04:36:25.119Z,4.08
2019-05-29T04:38:55.194Z,4.17
2019-05-29T04:41:25.506Z,4.30
2019-05-29T04:43:57.144Z,4.67
2019-05-29T04:46:26.693Z,5.47
2019-05-29T04:48:55.859Z,5.17
2019-05-29T04:51:31.093Z,5.47
2019-05-29T04:54:01.441Z,5.33
2019-05-29T04:56:32.727Z,4.87
2019-05-29T04:59:03.063Z,4.92
2019-05-29T05:01:33.484Z,5.58
2019-05-29T05:04:03.718Z,5.12
2019-05-29T05:06:35.109Z,4.60
2019-05-29T05:09:07.239Z,4.90
2019-05-29T05:11:37.565Z,5.07
2019-05-29T05:14:08.171Z,5.35
2019-05-29T05:16:38.234Z,5.15
2019-05-29T05:19:08.725Z,5.70
2019-05-29T05:21:40.156Z,4.40
2019-05-29T05:24:10.613Z,4.70
2019-05-29T05:26:41.337Z,4.45
2019-05-29T05:29:11.777Z,4.40
2019-05-29T05:31:42.608Z,4.92
2019-05-29T05:34:13.941Z,4.50
2019-05-29T05:36:44.812Z,4.85
2019-05-29T05:39:14.714Z,5.30
2019-05-29T05:41:45.253Z,5.15
2019-05-29T05:44:16.279Z,5.55
2019-05-29T05:46:47.033Z,5.42
2019-05-29T05:49:16.951Z,4.92
2019-05-29T05:51:47.734Z,5.13
2019-05-29T05:54:18.603Z,5.40
2019-05-29T05:56:48.905Z,6.17
2019-05-29T05:59:19.627Z,4.67
2019-05-29T06:01:49.797Z,5.78
2019-05-29T06:04:20.049Z,5.77
2019-05-29T06:06:50.172Z,4.80
2019-05-29T06:09:20.626Z,5.80
2019-05-29T06:11:50.606Z,4.72
2019-05-29T06:14:20.913Z,4.62
2019-05-29T06:16:51.212Z,5.15
2019-05-29T06:19:21.502Z,4.30
2019-05-29T06:21:51.717Z,4.80
2019-05-29T06:24:21.937Z,4.25
2019-05-29T06:26:52.112Z,5.67
2019-05-29T06:29:22.337Z,4.40
2019-05-29T06:31:52.584Z,4.53
2019-05-29T06:34:22.997Z,4.55
2019-05-29T06:36:53.457Z,5.10
2019-05-29T06:39:23.685Z,5.08
2019-05-29T06:41:53.966Z,5.28
2019-05-29T06:44:24.561Z,4.22
2019-05-29T06:46:54.856Z,5.08
2019-05-29T06:49:24.881Z,4.87
2019-05-29T06:51:55.137Z,4.42
2019-05-29T06:54:25.473Z,5.37
2019-05-29T06:56:55.750Z,5.30
2019-05-29T06:59:25.966Z,5.27
2019-05-29T07:01:56.135Z,4.30
2019-05-29T07:04:26.413Z,5.05
2019-05-29T07:06:56.573Z,4.70
2019-05-29T07:09:26.789Z,4.60
2019-05-29T07:11:57.508Z,4.50
2019-05-29T07:14:28.191Z,4.93
2019-05-29T07:16:58.995Z,4.80
2019-05-29T07:19:47.195Z,4.37
2019-05-29T07:22:00.925Z,4.50
2019-05-29T07:24:31.188Z,3.67
2019-05-29T07:27:01.370Z,4.83
2019-05-29T07:29:32.204Z,5.20
2019-05-29T07:32:02.426Z,4.33
2019-05-29T07:34:49.808Z,4.08
2019-05-29T07:37:04.600Z,4.10
2019-05-29T07:39:34.729Z,4.57
2019-05-29T07:42:04.909Z,4.03
2019-05-29T07:44:34.853Z,3.90
2019-05-29T07:47:05.151Z,4.60
2019-05-29T07:49:39.084Z,4.33
2019-05-29T07:52:07.065Z,3.87
2019-05-29T07:54:37.425Z,4.10
2019-05-29T07:57:08.145Z,4.30
2019-05-29T07:59:38.602Z,4.40
2019-05-29T08:02:08.964Z,3.62
2019-05-29T08:04:39.322Z,4.67
2019-05-29T08:07:09.885Z,4.40
2019-05-29T08:09:41.364Z,3.90
2019-05-29T08:12:11.389Z,3.37
2019-05-29T08:14:41.882Z,3.45
2019-05-29T08:17:12.337Z,3.35
2019-05-29T08:19:59.270Z,4.60
2019-05-29T08:22:14.350Z,4.22
2019-05-29T08:24:46.282Z,3.25
2019-05-29T08:27:16.701Z,3.47
2019-05-29T08:29:47.178Z,2.98
2019-05-29T08:32:17.310Z,3.80
2019-05-29T08:34:48.981Z,3.17
2019-05-29T08:37:19.400Z,3.27
2019-05-29T08:39:50.022Z,4.03
2019-05-29T08:42:23.663Z,3.70
2019-05-29T08:44:52.460Z,4.08
2019-05-29T08:47:22.681Z,3.67
2019-05-29T08:49:54.433Z,3.58
2019-05-29T08:52:25.073Z,3.62
2019-05-29T08:54:55.550Z,3.22
2019-05-29T08:57:26.161Z,4.12
2019-05-29T08:59:56.817Z,3.70
2019-05-29T09:02:26.937Z,3.77
2019-05-29T09:04:57.750Z,3.17
2019-05-29T09:07:28.511Z,4.12
2019-05-29T09:09:59.035Z,3.92
2019-05-29T09:12:29.930Z,3.35
2019-05-29T09:15:01.015Z,3.40
2019-05-29T09:17:34.233Z,3.47
2019-05-29T09:20:03.162Z,3.17
2019-05-29T09:22:33.591Z,3.30
2019-05-29T09:25:03.940Z,3.60
2019-05-29T09:27:34.217Z,3.47
2019-05-29T09:30:04.988Z,3.10
2019-05-29T09:32:49.451Z,3.05
2019-05-29T09:35:07.177Z,3.40
2019-05-29T09:37:37.417Z,2.80
2019-05-29T09:40:17.044Z,3.02
2019-05-29T09:42:47.449Z,4.35
2019-05-29T09:45:17.937Z,3.42
2019-05-29T09:47:48.298Z,3.12
2019-05-29T09:50:20.805Z,3.20
2019-05-29T09:52:50.886Z,3.63
2019-05-29T09:55:21.570Z,3.37
2019-05-29T09:57:52.425Z,3.00
2019-05-29T10:00:25.201Z,3.60
2019-05-29T10:02:55.622Z,3.10
2019-05-29T10:05:25.655Z,3.65
2019-05-29T10:07:56.768Z,3.25
2019-05-29T10:10:27.539Z,3.47
2019-05-29T10:12:58.279Z,3.50
2019-05-29T10:15:29.016Z,3.90
2019-05-29T10:17:58.962Z,2.85
2019-05-29T10:20:29.989Z,3.17
2019-05-29T10:23:00.955Z,3.10
2019-05-29T10:25:30.930Z,2.87
2019-05-29T10:28:00.943Z,3.10
2019-05-29T10:30:31.724Z,3.37
2019-05-29T10:33:01.667Z,3.50
2019-05-29T10:35:31.556Z,3.33
2019-05-29T10:38:01.514Z,3.72
2019-05-29T10:40:31.797Z,2.95
2019-05-29T10:43:02.107Z,2.98
2019-05-29T10:45:32.039Z,3.20
2019-05-29T10:48:01.972Z,3.35
2019-05-29T10:50:32.371Z,3.10
2019-05-29T10:53:02.310Z,2.50
2019-05-29T10:55:32.212Z,3.10
2019-05-29T10:58:02.158Z,2.90
2019-05-29T11:00:32.265Z,3.08
2019-05-29T11:03:02.330Z,3.20
2019-05-29T11:05:32.229Z,3.02
2019-05-29T11:08:02.183Z,3.25
2019-05-29T11:10:32.081Z,3.22
2019-05-29T11:13:02.174Z,2.98
2019-05-29T11:15:32.622Z,2.73
2019-05-29T11:18:02.599Z,2.85
2019-05-29T11:20:32.608Z,3.10
2019-05-29T11:23:02.548Z,2.60
2019-05-29T11:25:32.469Z,2.52
2019-05-29T11:28:03.819Z,2.80
2019-05-29T11:30:33.839Z,3.10
2019-05-29T11:33:04.284Z,2.67
2019-05-29T11:35:34.239Z,2.80
2019-05-29T11:38:04.236Z,2.75
2019-05-29T11:40:34.338Z,3.05
2019-05-29T11:43:04.256Z,2.67
2019-05-29T11:45:35.584Z,3.20
2019-05-29T11:48:06.122Z,3.12
2019-05-29T11:50:36.226Z,2.70
2019-05-29T11:53:06.347Z,2.40
2019-05-29T11:55:36.297Z,3.25
2019-05-29T11:58:06.302Z,3.00
2019-05-29T12:00:36.357Z,2.98
2019-05-29T12:03:09.098Z,2.95
2019-05-29T12:05:39.054Z,2.67
2019-05-29T12:08:08.962Z,2.87
2019-05-29T12:10:38.898Z,2.80
2019-05-29T12:13:08.810Z,2.50
2019-05-29T12:15:38.753Z,2.85
2019-05-29T12:18:23.098Z,2.37
2019-05-29T12:20:40.443Z,2.87
2019-05-29T12:23:25.130Z,2.55
2019-05-29T12:25:41.989Z,2.60
2019-05-29T12:28:11.899Z,2.47
2019-05-29T12:30:42.330Z,2.33
2019-05-29T12:33:12.245Z,2.55
2019-05-29T12:35:42.207Z,2.70
2019-05-29T12:38:12.105Z,2.50
2019-05-29T12:40:42.363Z,2.60
2019-05-29T12:43:26.002Z,2.58
2019-05-29T12:45:43.875Z,2.10
2019-05-29T12:48:15.248Z,2.47
2019-05-29T12:50:45.441Z,2.35
2019-05-29T12:53:29.825Z,2.37
2019-05-29T12:55:47.285Z,2.42
2019-05-29T12:58:17.191Z,2.50
2019-05-29T13:00:47.079Z,2.60
2019-05-29T13:03:17.037Z,2.70
2019-05-29T13:05:46.940Z,2.95
2019-05-29T13:08:16.909Z,3.12
2019-05-29T13:10:47.265Z,2.80
2019-05-29T13:13:17.253Z,2.30
2019-05-29T13:15:47.229Z,2.52
2019-05-29T13:18:17.187Z,2.50
2019-05-29T13:20:47.104Z,2.25
2019-05-29T13:23:17.086Z,2.30
2019-05-29T13:25:47.062Z,2.47
2019-05-29T13:28:17.025Z,2.45
2019-05-29T13:30:46.922Z,2.25
2019-05-29T13:33:16.873Z,2.20
2019-05-29T13:35:46.777Z,2.25
2019-05-29T13:38:16.733Z,2.10
2019-05-29T13:40:46.647Z,2.42
2019-05-29T13:43:16.584Z,2.70
2019-05-29T13:45:46.517Z,2.50
2019-05-29T13:48:16.480Z,2.20
2019-05-29T13:50:48.735Z,2.35
2019-05-29T13:53:18.170Z,2.57
2019-05-29T13:55:48.556Z,2.35
2019-05-29T13:58:18.765Z,2.05
2019-05-29T14:00:48.925Z,2.30
2019-05-29T14:03:18.894Z,2.27
2019-05-29T14:05:48.783Z,2.15
2019-05-29T14:08:18.937Z,2.50
2019-05-29T14:10:48.842Z,2.10
2019-05-29T14:13:19.486Z,2.05
2019-05-29T14:15:49.690Z,2.33
2019-05-29T14:18:19.761Z,2.08
2019-05-29T14:20:49.930Z,2.30
2019-05-29T14:23:20.561Z,2.60
2019-05-29T14:25:50.821Z,2.40
2019-05-29T14:28:21.114Z,2.87
2019-05-29T14:30:51.337Z,2.00
2019-05-29T14:33:21.650Z,2.10
2019-05-29T14:35:51.962Z,2.30
2019-05-29T14:38:22.094Z,2.05
2019-05-29T14:40:51.995Z,2.30
2019-05-29T14:43:22.216Z,2.52
2019-05-29T14:45:52.296Z,2.15
2019-05-29T14:48:22.668Z,2.33
2019-05-29T14:50:52.898Z,2.30
2019-05-29T14:53:23.579Z,2.30
2019-05-29T14:55:53.852Z,2.22
2019-05-29T14:58:24.385Z,2.40
2019-05-29T15:00:54.645Z,2.60
2019-05-29T15:03:25.101Z,2.15
2019-05-29T15:05:55.412Z,2.50
2019-05-29T15:08:25.373Z,2.60
2019-05-29T15:10:56.170Z,2.37
2019-05-29T15:13:26.169Z,2.70
2019-05-29T15:15:56.513Z,2.03
2019-05-29T15:18:26.886Z,2.10
2019-05-29T15:20:57.029Z,2.20
2019-05-29T15:23:27.821Z,2.35
2019-05-29T15:25:58.219Z,2.72
2019-05-29T15:28:28.564Z,2.13
2019-05-29T15:30:59.407Z,2.40
2019-05-29T15:33:29.726Z,2.95
2019-05-29T15:35:59.925Z,2.65
2019-05-29T15:38:30.249Z,2.37
2019-05-29T15:41:00.369Z,2.60
2019-05-29T15:43:30.681Z,2.27
2019-05-29T15:46:00.601Z,2.40
2019-05-29T15:48:31.127Z,1.82
2019-05-29T15:51:01.094Z,2.05
2019-05-29T15:53:31.447Z,2.80
2019-05-29T15:56:17.055Z,1.90
2019-05-29T15:58:34.201Z,2.40
2019-05-29T16:01:04.778Z,2.27
2019-05-29T16:03:35.276Z,1.90
2019-05-29T16:06:05.597Z,1.95
2019-05-29T16:08:36.367Z,1.82
2019-05-29T16:11:08.445Z,1.82
2019-05-29T16:13:38.678Z,1.85
2019-05-29T16:16:09.423Z,1.95
2019-05-29T16:18:40.138Z,1.75
2019-05-29T16:21:10.686Z,1.77
2019-05-29T16:23:41.239Z,1.90
2019-05-29T16:26:13.015Z,1.73
2019-05-29T16:28:43.297Z,1.40
2019-05-29T16:31:14.862Z,1.47
2019-05-29T16:33:45.409Z,1.62
2019-05-29T16:36:16.537Z,1.80
2019-05-29T16:38:46.958Z,1.67
2019-05-29T16:41:17.939Z,1.45
2019-05-29T16:43:48.473Z,1.40
2019-05-29T16:46:20.702Z,1.70
2019-05-29T16:48:51.511Z,1.67
2019-05-29T16:51:22.922Z,1.40
2019-05-29T16:53:53.464Z,1.50
2019-05-29T16:56:24.146Z,2.00
2019-05-29T16:58:54.562Z,2.42
2019-05-29T17:01:24.963Z,1.70
2019-05-29T17:03:55.362Z,1.35
2019-05-29T17:06:26.846Z,1.80
2019-05-29T17:08:56.889Z,1.35
2019-05-29T17:11:27.587Z,1.50
2019-05-29T17:13:57.913Z,1.40
2019-05-29T17:16:28.309Z,1.42
2019-05-29T17:18:59.821Z,1.20
2019-05-29T17:21:30.234Z,1.35
2019-05-29T17:24:01.049Z,1.20
2019-05-29T17:26:31.890Z,1.40
2019-05-29T17:29:02.518Z,1.30
2019-05-29T17:31:33.352Z,1.50
2019-05-29T17:34:03.650Z,1.60
2019-05-29T17:36:33.752Z,1.47
2019-05-29T17:39:05.166Z,1.22
2019-05-29T17:41:35.216Z,1.37
2019-05-29T17:44:05.895Z,1.20
2019-05-29T17:46:35.841Z,1.20
2019-05-29T17:49:06.169Z,1.62
2019-05-29T17:51:36.860Z,1.30
2019-05-29T17:54:07.909Z,1.50
2019-05-29T17:56:38.204Z,1.30
2019-05-29T17:59:08.304Z,1.25
2019-05-29T18:01:38.775Z,1.45
2019-05-29T18:04:08.965Z,1.40
2019-05-29T18:06:39.263Z,1.30
2019-05-29T18:09:09.502Z,1.40
2019-05-29T18:11:39.781Z,1.22
2019-05-29T18:14:09.789Z,1.25
2019-05-29T18:16:40.121Z,1.50
2019-05-29T18:19:10.018Z,1.42
2019-05-29T18:21:40.319Z,1.20
2019-05-29T18:24:10.486Z,1.70
2019-05-29T18:26:46.816Z,1.60
2019-05-29T18:29:12.797Z,1.40
2019-05-29T18:31:43.205Z,1.60
2019-05-29T18:34:13.430Z,1.30
2019-05-29T18:36:43.703Z,1.20
2019-05-29T18:39:13.780Z,1.53
2019-05-29T18:41:44.152Z,1.30
2019-05-29T18:44:14.448Z,1.15
2019-05-29T18:46:44.408Z,1.30
2019-05-29T18:49:15.016Z,1.30
2019-05-29T18:51:45.124Z,1.20
2019-05-29T18:54:15.590Z,1.25
2019-05-29T18:57:13.063Z,1.22
2019-05-29T18:59:18.168Z,1.50
2019-05-29T19:01:48.527Z,1.40
2019-05-29T19:04:19.008Z,1.30
2019-05-29T19:06:49.753Z,1.15
2019-05-29T19:09:20.056Z,1.10
2019-05-29T19:11:50.400Z,1.30
2019-05-29T19:14:20.301Z,1.30
2019-05-29T19:16:50.546Z,1.40
2019-05-29T19:19:20.450Z,1.20
2019-05-29T19:21:50.413Z,1.45
2019-05-29T19:24:20.321Z,1.10
2019-05-29T19:26:50.268Z,1.32
2019-05-29T19:29:20.175Z,1.22
2019-05-29T19:31:50.130Z,1.40
2019-05-29T19:34:20.086Z,1.42
2019-05-29T19:36:50.055Z,1.40
2019-05-29T19:39:19.950Z,1.35
2019-05-29T19:41:50.003Z,1.50
2019-05-29T19:44:20.013Z,1.40
2019-05-29T19:46:54.078Z,1.27
2019-05-29T19:49:21.513Z,1.40
2019-05-29T19:51:51.524Z,1.20
2019-05-29T19:54:21.431Z,1.40
2019-05-29T19:56:51.589Z,1.22
2019-05-29T19:59:21.502Z,1.17
2019-05-29T20:01:51.481Z,1.30
2019-05-29T20:04:21.389Z,1.25
2019-05-29T20:06:51.465Z,1.40
2019-05-29T20:09:21.373Z,1.40
2019-05-29T20:11:51.320Z,1.50
2019-05-29T20:14:21.660Z,1.85
2019-05-29T20:16:51.626Z,1.60
2019-05-29T20:19:21.538Z,1.60
2019-05-29T20:21:51.496Z,1.50
2019-05-29T20:24:21.434Z,1.60
2019-05-29T20:26:51.380Z,1.90
2019-05-29T20:29:21.297Z,1.50
2019-05-29T20:31:51.315Z,1.60
2019-05-29T20:34:21.288Z,1.67
2019-05-29T20:36:51.221Z,1.83
2019-05-29T20:39:21.174Z,1.60
2019-05-29T20:41:51.086Z,1.90
2019-05-29T20:44:21.058Z,1.60
2019-05-29T20:46:50.967Z,1.77
2019-05-29T20:49:20.939Z,1.60
2019-05-29T20:51:51.088Z,1.67
2019-05-29T20:54:21.034Z,1.80
2019-05-29T20:56:50.946Z,1.70
2019-05-29T20:59:21.055Z,1.72
2019-05-29T21:01:50.994Z,1.85
2019-05-29T21:04:20.986Z,1.80
2019-05-29T21:06:51.353Z,1.90
2019-05-29T21:09:21.303Z,1.70
2019-05-29T21:11:51.213Z,2.02
2019-05-29T21:14:21.169Z,1.90
2019-05-29T21:16:51.144Z,1.90
2019-05-29T21:19:21.160Z,1.72
2019-05-29T21:21:51.080Z,1.85
2019-05-29T21:24:21.075Z,1.92
2019-05-29T21:26:50.991Z,1.70
2019-05-29T21:29:20.947Z,1.92
2019-05-29T21:31:51.133Z,1.80
2019-05-29T21:34:21.698Z,2.17
2019-05-29T21:36:52.093Z,2.00
2019-05-29T21:39:22.611Z,1.60
2019-05-29T21:41:53.033Z,1.95
2019-05-29T21:44:23.284Z,2.00
2019-05-29T21:46:53.505Z,1.92
2019-05-29T21:49:23.623Z,1.90
2019-05-29T21:51:54.065Z,1.90
2019-05-29T21:54:24.044Z,2.10
2019-05-29T21:56:54.389Z,1.82
2019-05-29T21:59:24.521Z,2.05
2019-05-29T22:01:54.881Z,2.25
2019-05-29T22:04:25.124Z,2.20
2019-05-29T22:06:55.428Z,1.98
2019-05-29T22:09:25.665Z,2.37
2019-05-29T22:11:56.367Z,2.67
2019-05-29T22:14:27.032Z,2.22
2019-05-29T22:16:57.514Z,2.60
2019-05-29T22:19:27.921Z,2.37
2019-05-29T22:21:59.078Z,2.20
2019-05-29T22:24:30.162Z,2.37
2019-05-29T22:27:01.424Z,2.30
2019-05-29T22:29:31.916Z,2.20
2019-05-29T22:32:02.137Z,2.30
2019-05-29T22:34:32.498Z,2.30
2019-05-29T22:37:03.213Z,2.22
2019-05-29T22:39:33.374Z,2.12
2019-05-29T22:42:03.502Z,2.27
2019-05-29T22:44:33.579Z,2.22
2019-05-29T22:47:03.906Z,2.60
2019-05-29T22:49:34.178Z,2.57
2019-05-29T22:52:04.744Z,2.70
2019-05-29T22:54:34.658Z,2.58
2019-05-29T22:57:04.925Z,3.05
2019-05-29T22:59:35.222Z,2.80
2019-05-29T23:02:05.468Z,2.75
2019-05-29T23:04:35.688Z,2.52
2019-05-29T23:07:06.178Z,2.87
2019-05-29T23:09:36.285Z,2.40
2019-05-29T23:12:06.508Z,2.22
2019-05-29T23:14:37.113Z,2.95
2019-05-29T23:17:07.427Z,2.60
2019-05-29T23:19:37.576Z,2.37
2019-05-29T23:22:07.853Z,2.77
2019-05-29T23:24:38.083Z,2.80
2019-05-29T23:27:08.029Z,2.50
2019-05-29T23:29:48.586Z,2.30
2019-05-29T23:32:10.046Z,2.52
2019-05-29T23:34:40.567Z,2.70
2019-05-29T23:37:13.745Z,3.05
2019-05-29T23:39:43.041Z,2.77
2019-05-29T23:42:13.577Z,3.10
2019-05-29T23:44:44.221Z,2.90
2019-05-29T23:47:14.467Z,2.37
2019-05-29T23:49:44.713Z,2.10
2019-05-29T23:52:15.629Z,2.47
2019-05-29T23:54:45.522Z,2.50
2019-05-29T23:57:15.822Z,2.70
2019-05-29T23:59:45.729Z,2.75
